Time;durP1;ratioP1;P1;durP2;ratioP2;P2;SDS_P1;SDS_P2;PMS_P1;PMS_P2;Temp;Humidity;BMP_temperature;BMP_pressure;BME280_temperature;BME280_humidity;BME280_pressure;Samples;Min_cycle;Max_cycle;Signal;HPM_P1;HPM_P2
2023/04/10 00:01:34;;;;;;;4.88;3.05;;;12.70;66.60;;;;;;10060076;28;20030;-63
2023/04/10 00:06:26;;;;;;;6.47;2.80;;;12.60;66.80;;;;;;10057029;28;20026;-64
2023/04/10 00:11:17;;;;;;;9.40;3.67;;;12.50;66.90;;;;;;10030749;28;20213;-63
2023/04/10 00:16:08;;;;;;;6.47;3.72;;;12.40;67.00;;;;;;10058513;28;20042;-63
2023/04/10 00:20:58;;;;;;;5.45;3.72;;;12.50;67.20;;;;;;10058069;28;20029;-62
2023/04/10 00:25:49;;;;;;;6.88;3.75;;;12.60;67.30;;;;;;10058334;28;20151;-64
2023/04/10 00:30:40;;;;;;;6.75;3.75;;;12.60;67.50;;;;;;10057780;28;20064;-66
2023/04/10 00:35:31;;;;;;;7.97;3.85;;;12.60;67.50;;;;;;10046777;28;20455;-67
2023/04/10 00:40:21;;;;;;;6.28;4.22;;;12.50;68.30;;;;;;10058613;28;20032;-66
2023/04/10 00:45:12;;;;;;;6.20;3.70;;;12.40;67.90;;;;;;10058334;28;20512;-65
2023/04/10 00:50:04;;;;;;;7.10;3.67;;;12.50;68.00;;;;;;10057550;28;20021;-66
2023/04/10 00:54:55;;;;;;;8.90;4.55;;;12.40;68.20;;;;;;10057315;28;20518;-65
2023/04/10 00:59:47;;;;;;;8.50;4.10;;;12.40;68.40;;;;;;10057777;28;20029;-64
2023/04/10 01:04:38;;;;;;;7.32;4.00;;;12.40;68.40;;;;;;10057310;28;20079;-62
2023/04/10 01:09:58;;;;;;;8.18;3.75;;;12.40;68.50;;;;;;10058737;28;20042;-62
2023/04/10 01:15:03;;;;;;;6.18;3.78;;;12.40;68.80;;;;;;10047478;28;20059;-64
2023/04/10 01:20:07;;;;;;;8.23;4.32;;;12.30;68.90;;;;;;10054429;28;20025;-64
2023/04/10 01:25:01;;;;;;;5.53;3.50;;;12.30;69.00;;;;;;10050243;28;20120;-64
2023/04/10 01:29:56;;;;;;;7.20;3.80;;;12.20;69.20;;;;;;10057070;28;20045;-64
2023/04/10 01:34:50;;;;;;;8.37;4.40;;;12.30;69.20;;;;;;10047684;28;20037;-63
2023/04/10 01:39:42;;;;;;;7.53;4.65;;;12.20;69.40;;;;;;10051444;28;20021;-63
2023/04/10 01:44:37;;;;;;;7.10;3.97;;;12.10;69.50;;;;;;10064461;28;20029;-64
2023/04/10 01:49:30;;;;;;;7.13;4.40;;;12.20;69.60;;;;;;10056471;28;20025;-63
2023/04/10 01:54:21;;;;;;;8.77;4.85;;;12.10;69.70;;;;;;10055715;28;20045;-63
2023/04/10 01:59:12;;;;;;;6.68;3.92;;;12.10;69.90;;;;;;10056165;28;20468;-63
2023/04/10 02:04:05;;;;;;;6.45;3.90;;;12.10;69.90;;;;;;10055445;28;20088;-63
2023/04/10 02:09:00;;;;;;;8.88;5.13;;;12.10;70.00;;;;;;10055515;28;20561;-63
2023/04/10 02:13:52;;;;;;;7.80;5.22;;;11.90;70.20;;;;;;10055595;28;20063;-62
2023/04/10 02:18:45;;;;;;;9.35;4.35;;;11.80;70.60;;;;;;10056209;28;20030;-63
2023/04/10 02:23:35;;;;;;;7.43;4.28;;;11.70;71.10;;;;;;10054788;28;20041;-63
2023/04/10 02:28:26;;;;;;;8.07;4.13;;;11.60;71.50;;;;;;10059746;28;20018;-63
2023/04/10 02:33:17;;;;;;;7.05;3.88;;;11.50;71.70;;;;;;10052058;28;20057;-63
2023/04/10 02:38:08;;;;;;;8.18;4.80;;;11.50;72.30;;;;;;10044277;28;20021;-68
2023/04/10 02:42:58;;;;;;;6.63;3.97;;;11.30;72.50;;;;;;10054882;28;20021;-64
2023/04/10 02:47:49;;;;;;;7.88;4.43;;;11.30;72.80;;;;;;10056071;28;20017;-66
2023/04/10 02:52:40;;;;;;;7.80;4.13;;;11.30;72.90;;;;;;10058734;28;20033;-64
2023/04/10 02:57:31;;;;;;;6.93;4.38;;;11.20;73.40;;;;;;10060868;28;20037;-64
2023/04/10 03:02:22;;;;;;;6.15;4.57;;;11.20;73.80;;;;;;10061255;28;20025;-64
2023/04/10 03:07:12;;;;;;;7.82;4.70;;;10.90;74.70;;;;;;10059609;28;20034;-65
2023/04/10 03:12:03;;;;;;;7.35;4.82;;;10.80;75.40;;;;;;10060800;28;20084;-63
2023/04/10 03:16:53;;;;;;;7.65;4.65;;;10.80;75.50;;;;;;10062161;28;20064;-65
2023/04/10 03:21:45;;;;;;;7.47;4.70;;;10.60;75.60;;;;;;10060785;28;20063;-65
2023/04/10 03:26:36;;;;;;;9.00;5.15;;;10.70;75.70;;;;;;10041301;28;20120;-65
2023/04/10 03:31:27;;;;;;;6.75;4.88;;;10.70;75.80;;;;;;10060421;28;20144;-63
2023/04/10 03:36:17;;;;;;;7.97;3.67;;;10.70;75.80;;;;;;10050881;28;20041;-63
2023/04/10 03:41:08;;;;;;;8.00;4.40;;;10.50;76.10;;;;;;10060483;28;20162;-63
2023/04/10 03:45:58;;;;;;;8.77;4.65;;;10.50;76.50;;;;;;10060620;28;20169;-63
2023/04/10 03:50:49;;;;;;;5.93;3.67;;;10.30;76.80;;;;;;10060345;28;20104;-63
2023/04/10 03:55:40;;;;;;;5.85;3.60;;;10.30;77.10;;;;;;10059200;28;20403;-61
2023/04/10 04:00:30;;;;;;;8.55;4.55;;;10.30;76.90;;;;;;10059868;28;20029;-62
2023/04/10 04:05:21;;;;;;;8.05;4.68;;;10.30;76.90;;;;;;10057157;28;20447;-63
2023/04/10 04:10:12;;;;;;;8.88;4.68;;;10.20;77.20;;;;;;10059119;28;20408;-61
2023/04/10 04:15:03;;;;;;;4.90;3.97;;;10.20;77.10;;;;;;10058849;28;20048;-62
2023/04/10 04:19:54;;;;;;;8.05;4.15;;;10.00;77.60;;;;;;10058590;28;20025;-63
2023/04/10 04:24:44;;;;;;;7.75;4.43;;;9.90;77.70;;;;;;10058017;28;20391;-63
2023/04/10 04:29:35;;;;;;;7.20;4.47;;;10.10;77.70;;;;;;10059117;28;20050;-63
2023/04/10 04:34:26;;;;;;;6.10;4.35;;;9.90;78.00;;;;;;10061110;28;20036;-63
2023/04/10 04:39:16;;;;;;;8.02;4.05;;;9.90;78.20;;;;;;10052353;28;20026;-63
2023/04/10 04:44:07;;;;;;;11.23;5.32;;;9.80;78.50;;;;;;10062228;28;20033;-66
2023/04/10 04:48:57;;;;;;;9.70;4.38;;;9.90;78.30;;;;;;10063863;28;20021;-67
2023/04/10 04:53:48;;;;;;;6.22;4.35;;;9.80;78.60;;;;;;10059621;28;20103;-66
2023/04/10 04:58:39;;;;;;;9.38;4.15;;;9.90;78.70;;;;;;10059832;28;20041;-64
2023/04/10 05:03:30;;;;;;;6.55;3.80;;;9.80;79.10;;;;;;10050449;28;20033;-62
2023/04/10 05:08:21;;;;;;;7.53;4.05;;;9.80;79.00;;;;;;10055462;28;20176;-65
2023/04/10 05:13:12;;;;;;;9.93;4.50;;;9.90;79.20;;;;;;10057982;28;20198;-62
2023/04/10 05:18:02;;;;;;;8.27;4.93;;;9.80;79.50;;;;;;10068183;28;20559;-63
2023/04/10 05:22:53;;;;;;;6.75;3.88;;;9.60;79.80;;;;;;10065435;28;20033;-62
2023/04/10 05:27:44;;;;;;;6.53;3.72;;;9.60;79.90;;;;;;10058146;28;20132;-62
2023/04/10 05:32:34;;;;;;;8.60;4.45;;;9.70;80.00;;;;;;10059325;28;20068;-64
2023/04/10 05:37:25;;;;;;;6.10;3.58;;;9.70;80.70;;;;;;10049901;28;20026;-62
2023/04/10 05:42:15;;;;;;;6.57;4.93;;;9.60;80.50;;;;;;10060203;28;20037;-62
2023/04/10 05:47:06;;;;;;;8.05;4.15;;;9.60;80.80;;;;;;10062656;28;20041;-62
2023/04/10 05:51:57;;;;;;;9.43;4.47;;;9.60;80.70;;;;;;10060454;28;20392;-63
2023/04/10 05:56:49;;;;;;;9.98;5.13;;;9.70;80.80;;;;;;10057973;28;20027;-62
2023/04/10 06:01:40;;;;;;;8.43;4.68;;;9.50;81.50;;;;;;10060394;28;20495;-63
2023/04/10 06:06:32;;;;;;;9.38;5.10;;;9.50;81.50;;;;;;10059378;28;20036;-62
2023/04/10 06:11:23;;;;;;;7.07;4.65;;;9.50;81.80;;;;;;10065556;28;20064;-63
2023/04/10 06:16:15;;;;;;;7.38;5.00;;;9.50;81.80;;;;;;10062719;28;20033;-63
2023/04/10 06:21:06;;;;;;;9.73;4.85;;;9.50;81.90;;;;;;10063174;28;20060;-61
2023/04/10 06:25:57;;;;;;;8.77;4.95;;;9.50;81.90;;;;;;10066227;28;20464;-61
2023/04/10 06:30:47;;;;;;;6.97;5.00;;;9.70;81.90;;;;;;10067513;28;20096;-63
2023/04/10 06:35:39;;;;;;;9.77;4.85;;;9.80;82.00;;;;;;10057367;28;20060;-63
2023/04/10 06:40:30;;;;;;;12.20;5.85;;;9.90;82.10;;;;;;10068346;28;20068;-63
2023/04/10 06:45:21;;;;;;;8.50;4.30;;;10.00;81.90;;;;;;10071051;28;20037;-63
2023/04/10 06:50:12;;;;;;;7.65;5.18;;;10.00;82.20;;;;;;10070226;28;20040;-63
2023/04/10 06:55:03;;;;;;;9.07;5.45;;;10.20;82.00;;;;;;10072006;28;20049;-62
2023/04/10 06:59:56;;;;;;;9.98;5.93;;;10.20;82.00;;;;;;10080522;28;20061;-64
2023/04/10 07:04:47;;;;;;;9.38;5.78;;;10.30;82.00;;;;;;10076896;28;20064;-62
2023/04/10 07:09:38;;;;;;;10.32;5.47;;;10.50;82.00;;;;;;10073775;28;20040;-63
2023/04/10 07:14:30;;;;;;;9.50;4.95;;;10.60;81.70;;;;;;10071796;28;20134;-61
2023/04/10 07:19:21;;;;;;;11.52;4.82;;;10.70;81.60;;;;;;10070317;28;20263;-62
2023/04/10 07:24:11;;;;;;;9.20;4.28;;;10.90;81.40;;;;;;10074519;28;20045;-63
2023/04/10 07:29:02;;;;;;;8.05;4.75;;;11.00;81.40;;;;;;10071190;28;20033;-63
2023/04/10 07:33:52;;;;;;;8.15;4.00;;;11.10;81.00;;;;;;10066867;28;20045;-65
2023/04/10 07:38:43;;;;;;;7.53;3.83;;;11.10;81.10;;;;;;10082473;28;20022;-63
2023/04/10 07:43:34;;;;;;;7.18;3.60;;;11.30;81.00;;;;;;10067885;28;20275;-64
2023/04/10 07:48:25;;;;;;;7.38;3.63;;;11.30;80.60;;;;;;10070831;28;20025;-64
2023/04/10 07:53:15;;;;;;;6.68;3.60;;;11.50;80.50;;;;;;10066390;28;20055;-63
2023/04/10 07:58:06;;;;;;;5.53;3.20;;;11.70;80.20;;;;;;10068769;28;20039;-63
2023/04/10 08:02:57;;;;;;;6.57;3.40;;;11.90;79.80;;;;;;10067944;28;20116;-64
2023/04/10 08:07:47;;;;;;;8.27;3.72;;;12.00;79.80;;;;;;10068194;28;20041;-63
2023/04/10 08:12:38;;;;;;;4.80;3.08;;;12.10;79.50;;;;;;10067708;28;20029;-63
2023/04/10 08:17:29;;;;;;;6.93;3.38;;;12.30;79.40;;;;;;10063327;28;20329;-63
2023/04/10 08:22:19;;;;;;;4.25;2.90;;;12.60;79.00;;;;;;10068526;28;20029;-63
2023/04/10 08:27:10;;;;;;;4.82;2.78;;;12.80;78.60;;;;;;10059117;28;20068;-62
2023/04/10 08:32:01;;;;;;;4.60;2.83;;;13.20;78.90;;;;;;10062272;28;20093;-63
2023/04/10 08:36:53;;;;;;;4.40;2.85;;;13.40;78.00;;;;;;10048290;28;20033;-64
2023/04/10 08:41:44;;;;;;;4.05;2.63;;;13.50;77.70;;;;;;10061093;28;20650;-63
2023/04/10 08:46:35;;;;;;;3.45;2.85;;;13.60;77.40;;;;;;10060035;28;20120;-65
2023/04/10 08:51:45;;;;;;;2.83;2.40;;;13.90;77.10;;;;;;10057273;28;20025;-65
2023/04/10 08:56:38;;;;;;;4.03;2.15;;;13.80;76.70;;;;;;10060050;28;20037;-62
2023/04/10 09:01:30;;;;;;;3.83;2.15;;;13.90;77.00;;;;;;10059228;28;20498;-64
2023/04/10 09:06:20;;;;;;;3.00;2.17;;;13.90;75.80;;;;;;10059356;28;20146;-63
2023/04/10 09:11:12;;;;;;;3.38;2.30;;;13.90;75.30;;;;;;10057932;28;20103;-64
2023/04/10 09:16:03;;;;;;;2.97;2.08;;;13.90;75.10;;;;;;10058087;28;20039;-64
2023/04/10 09:21:05;;;;;;;3.65;2.33;;;14.00;74.70;;;;;;10056905;28;20101;-64
2023/04/10 09:25:56;;;;;;;3.05;2.00;;;14.20;74.70;;;;;;10056928;28;20306;-64
2023/04/10 09:30:47;;;;;;;2.58;1.73;;;14.40;74.10;;;;;;10058907;28;20037;-64
2023/04/10 09:35:38;;;;;;;5.68;2.42;;;14.40;74.00;;;;;;10045540;28;20161;-65
2023/04/10 09:40:28;;;;;;;2.92;1.88;;;14.60;73.70;;;;;;10056233;28;20377;-63
2023/04/10 09:45:21;;;;;;;2.95;2.15;;;14.90;73.50;;;;;;10054510;28;20503;-64
2023/04/10 09:50:11;;;;;;;2.88;1.67;;;14.90;73.20;;;;;;10057334;28;20021;-64
2023/04/10 09:55:04;;;;;;;3.22;2.00;;;15.00;73.00;;;;;;10055628;28;20038;-63
2023/04/10 10:00:00;;;;;;;2.28;2.08;;;15.30;72.80;;;;;;10055376;28;20438;-65
2023/04/10 10:04:52;;;;;;;3.40;1.83;;;15.60;72.20;;;;;;10063875;28;20156;-66
2023/04/10 10:09:44;;;;;;;3.08;2.38;;;15.70;72.10;;;;;;10063632;28;20547;-64
2023/04/10 10:14:40;;;;;;;2.33;2.05;;;16.10;71.90;;;;;;10063517;28;20029;-65
2023/04/10 10:20:04;;;;;;;2.60;1.80;;;16.30;71.60;;;;;;10064558;28;20083;-63
2023/04/10 10:24:58;;;;;;;1.98;1.58;;;16.60;71.00;;;;;;10053152;28;20037;-64
2023/04/10 10:29:52;;;;;;;3.37;2.10;;;16.80;70.90;;;;;;10061873;28;20049;-65
2023/04/10 10:34:44;;;;;;;2.80;2.17;;;17.20;70.80;;;;;;10056932;28;20132;-66
2023/04/10 10:39:45;;;;;;;2.88;1.70;;;17.20;70.50;;;;;;10056858;28;20049;-68
2023/04/10 10:44:43;;;;;;;3.08;1.88;;;17.40;70.10;;;;;;10062941;28;20026;-63
2023/04/10 10:49:57;;;;;;;2.40;1.67;;;17.50;69.90;;;;;;10063385;28;20109;-65
2023/04/10 10:54:47;;;;;;;2.70;2.15;;;17.60;68.70;;;;;;10063352;28;20042;-64
2023/04/10 10:59:47;;;;;;;2.90;1.60;;;17.50;69.30;;;;;;10060783;28;20029;-63
2023/04/10 11:04:45;;;;;;;2.67;1.83;;;17.60;68.70;;;;;;10060410;28;20079;-66
2023/04/10 11:09:52;;;;;;;2.25;1.77;;;17.50;68.30;;;;;;10064656;28;20031;-66
2023/04/10 11:14:44;;;;;;;4.22;1.90;;;17.40;67.70;;;;;;10060646;28;20044;-64
2023/04/10 11:19:58;;;;;;;2.70;1.65;;;17.40;67.80;;;;;;10062271;28;20025;-64
2023/04/10 11:24:53;;;;;;;3.40;2.00;;;17.70;67.10;;;;;;10054847;28;20025;-65
2023/04/10 11:29:44;;;;;;;;;;;17.80;67.00;;;;;;10061475;28;20122;-65
2023/04/10 11:34:43;;;;;;;2.60;1.98;;;17.90;65.90;;;;;;10056197;28;19924;-64
2023/04/10 11:39:34;;;;;;;2.00;1.73;;;18.20;66.30;;;;;;10046261;28;20403;-64
2023/04/10 11:44:26;;;;;;;2.22;1.63;;;18.30;66.00;;;;;;10051031;28;20121;-64
2023/04/10 11:49:22;;;;;;;2.00;1.67;;;18.70;65.60;;;;;;10053803;28;20144;-63
2023/04/10 11:54:15;;;;;;;2.33;1.60;;;18.60;64.90;;;;;;10055653;28;20083;-64
2023/04/10 11:59:09;;;;;;;2.90;1.90;;;18.70;64.60;;;;;;10061611;28;20468;-65
2023/04/10 12:04:00;;;;;;;2.17;1.90;;;18.90;64.00;;;;;;10059636;28;20013;-64
2023/04/10 12:08:51;;;;;;;2.40;1.55;;;19.20;64.00;;;;;;10069610;28;20520;-64
2023/04/10 12:13:42;;;;;;;2.42;1.40;;;19.50;63.80;;;;;;10060125;28;20029;-63
2023/04/10 12:18:33;;;;;;;3.78;1.70;;;19.50;63.50;;;;;;10059481;28;20025;-65
2023/04/10 12:23:26;;;;;;;3.40;1.80;;;19.70;63.50;;;;;;10058449;28;20032;-63
2023/04/10 12:28:23;;;;;;;2.15;1.92;;;19.80;63.20;;;;;;10059368;28;20104;-64
2023/04/10 12:33:19;;;;;;;2.78;1.73;;;19.90;62.90;;;;;;10060726;28;20411;-65
2023/04/10 12:38:10;;;;;;;2.70;2.03;;;20.20;62.70;;;;;;10059226;28;20025;-64
2023/04/10 12:43:00;;;;;;;2.97;1.65;;;20.30;62.30;;;;;;10058327;28;20021;-64
2023/04/10 12:47:52;;;;;;;2.05;1.58;;;20.40;62.40;;;;;;10067397;28;20454;-64
2023/04/10 12:52:44;;;;;;;2.50;1.75;;;20.60;62.40;;;;;;10056374;28;20036;-64
2023/04/10 12:57:35;;;;;;;2.97;2.05;;;20.80;62.10;;;;;;10050841;28;20029;-64
2023/04/10 13:02:26;;;;;;;2.08;1.67;;;20.90;62.10;;;;;;10057174;28;20499;-66
2023/04/10 13:07:17;;;;;;;4.10;2.08;;;20.80;62.00;;;;;;10057620;28;20492;-64
2023/04/10 13:12:08;;;;;;;3.80;2.90;;;20.70;61.90;;;;;;10057073;28;20477;-64
2023/04/10 13:16:58;;;;;;;3.97;1.73;;;20.80;61.90;;;;;;10057723;28;20580;-65
2023/04/10 13:21:50;;;;;;;2.85;2.20;;;20.70;62.10;;;;;;10056888;28;20025;-65
2023/04/10 13:26:41;;;;;;;2.97;1.80;;;20.80;62.00;;;;;;10056538;28;20101;-65
2023/04/10 13:31:31;;;;;;;2.55;1.92;;;20.80;61.90;;;;;;10054800;28;20151;-66
2023/04/10 13:36:22;;;;;;;2.17;1.70;;;20.60;61.90;;;;;;10056448;28;20433;-66
2023/04/10 13:41:13;;;;;;;2.30;1.60;;;20.50;61.90;;;;;;10058133;28;20036;-62
2023/04/10 13:46:04;;;;;;;1.85;1.50;;;20.40;62.00;;;;;;10060470;28;20108;-65
2023/04/10 13:50:54;;;;;;;2.35;1.63;;;20.40;62.00;;;;;;10060032;28;20028;-64
2023/04/10 13:55:47;;;;;;;2.35;1.70;;;20.40;62.10;;;;;;10055879;28;20148;-64
2023/04/10 14:00:38;;;;;;;2.10;1.70;;;20.70;61.90;;;;;;10055679;28;20041;-65
2023/04/10 14:05:28;;;;;;;4.10;1.83;;;21.30;61.50;;;;;;10062734;28;20032;-64
2023/04/10 14:10:19;;;;;;;1.90;1.80;;;21.60;61.30;;;;;;10055252;28;20033;-64
2023/04/10 14:15:10;;;;;;;3.35;2.38;;;21.60;61.40;;;;;;10054462;28;20126;-65
2023/04/10 14:20:01;;;;;;;3.17;1.83;;;22.10;61.20;;;;;;10055357;28;20078;-64
2023/04/10 14:24:51;;;;;;;2.13;1.63;;;22.60;61.20;;;;;;10059804;28;20108;-64
2023/04/10 14:29:42;;;;;;;2.10;1.63;;;22.70;60.90;;;;;;10055031;28;20072;-66
2023/04/10 14:34:33;;;;;;;2.17;1.58;;;22.50;61.60;;;;;;10053902;28;20077;-65
2023/04/10 14:39:24;;;;;;;2.08;1.83;;;22.40;61.00;;;;;;10055345;28;20029;-65
2023/04/10 14:44:14;;;;;;;2.50;1.73;;;21.70;61.10;;;;;;10053943;28;20021;-65
2023/04/10 14:49:05;;;;;;;2.58;1.90;;;21.40;61.30;;;;;;10069718;28;20036;-64
2023/04/10 14:53:56;;;;;;;2.70;1.67;;;21.10;61.30;;;;;;10062368;28;20461;-63
2023/04/10 14:58:46;;;;;;;2.40;1.90;;;20.80;61.60;;;;;;10056548;28;20106;-64
2023/04/10 15:03:37;;;;;;;3.35;1.63;;;20.60;61.70;;;;;;10062167;28;20032;-63
2023/04/10 15:08:28;;;;;;;3.47;2.00;;;20.40;61.90;;;;;;10066883;28;20733;-63
2023/04/10 15:13:20;;;;;;;3.15;2.00;;;20.30;62.00;;;;;;10061352;28;20047;-63
2023/04/10 15:18:10;;;;;;;1.83;1.33;;;20.20;62.00;;;;;;10061416;28;20024;-63
2023/04/10 15:23:01;;;;;;;3.05;2.05;;;20.10;62.30;;;;;;10061067;28;20120;-64
2023/04/10 15:27:54;;;;;;;2.13;1.48;;;20.10;62.10;;;;;;10061513;28;20017;-64
2023/04/10 15:32:44;;;;;;;2.42;1.70;;;19.90;62.30;;;;;;10058784;28;20295;-64
2023/04/10 15:37:35;;;;;;;1.50;1.30;;;19.90;62.30;;;;;;10060875;28;20351;-63
2023/04/10 15:42:26;;;;;;;2.15;1.30;;;20.00;62.30;;;;;;10059953;28;20518;-63
2023/04/10 15:47:17;;;;;;;2.40;1.95;;;20.00;62.20;;;;;;10065139;28;20026;-64
2023/04/10 15:52:08;;;;;;;2.75;1.60;;;20.00;62.10;;;;;;10060485;28;20017;-64
2023/04/10 15:56:58;;;;;;;1.50;1.33;;;20.20;61.90;;;;;;10051746;28;20045;-63
2023/04/10 16:01:49;;;;;;;1.30;1.00;;;20.10;61.80;;;;;;10050342;28;20037;-62
2023/04/10 16:06:40;;;;;;;6.03;1.40;;;20.20;61.50;;;;;;10065634;28;20248;-67
2023/04/10 16:11:30;;;;;;;1.95;1.40;;;20.30;61.30;;;;;;10057445;28;20047;-68
2023/04/10 16:16:21;;;;;;;2.70;2.33;;;20.30;61.10;;;;;;10056994;28;20046;-67
2023/04/10 16:21:15;;;;;;;3.90;1.63;;;20.30;61.10;;;;;;10057458;28;20025;-67
2023/04/10 16:26:05;;;;;;;1.95;1.50;;;20.10;61.00;;;;;;10056372;28;20079;-68
2023/04/10 16:30:56;;;;;;;2.08;1.52;;;19.80;61.20;;;;;;10058697;28;20091;-63
2023/04/10 16:35:47;;;;;;;9.23;2.03;;;19.60;61.30;;;;;;10057452;28;20114;-64
2023/04/10 16:40:37;;;;;;;2.30;1.40;;;19.50;61.50;;;;;;10057704;28;20033;-64
2023/04/10 16:45:28;;;;;;;3.33;1.95;;;19.40;61.80;;;;;;10053254;28;20029;-63
2023/04/10 16:50:19;;;;;;;2.72;1.88;;;19.30;62.00;;;;;;10066124;28;20358;-63
2023/04/10 16:55:10;;;;;;;2.67;1.90;;;19.20;62.20;;;;;;10051649;28;20381;-64
2023/04/10 17:00:00;;;;;;;3.60;2.20;;;19.20;62.50;;;;;;10055183;28;20018;-62
2023/04/10 17:04:54;;;;;;;4.25;1.70;;;19.10;62.80;;;;;;10039206;28;20033;-62
2023/04/10 17:09:44;;;;;;;4.80;2.70;;;19.00;63.20;;;;;;10047659;28;20095;-62
2023/04/10 17:14:35;;;;;;;3.92;2.17;;;18.90;63.50;;;;;;10038437;28;20049;-64
2023/04/10 17:19:26;;;;;;;4.57;2.88;;;18.90;63.70;;;;;;10045943;28;20029;-63
2023/04/10 17:24:16;;;;;;;3.28;2.15;;;18.80;64.00;;;;;;10047103;28;20165;-67
2023/04/10 17:29:07;;;;;;;4.47;2.10;;;18.70;64.20;;;;;;10051067;28;20026;-66
2023/04/10 17:33:58;;;;;;;5.22;2.80;;;18.70;64.40;;;;;;10041485;28;20026;-62
2023/04/10 17:38:50;;;;;;;2.88;1.77;;;18.60;64.80;;;;;;10048983;28;20037;-64
2023/04/10 17:43:40;;;;;;;4.93;2.38;;;18.60;65.10;;;;;;10048797;28;20440;-63
2023/04/10 17:48:33;;;;;;;3.55;2.30;;;18.50;65.40;;;;;;10039830;28;20566;-64
2023/04/10 17:53:23;;;;;;;6.20;2.90;;;18.50;65.50;;;;;;10039166;28;20038;-62
2023/04/10 17:58:14;;;;;;;5.75;2.35;;;18.50;65.70;;;;;;10033803;28;20018;-62
2023/04/10 18:03:05;;;;;;;3.08;2.28;;;18.40;66.20;;;;;;10044411;28;20108;-62
2023/04/10 18:07:55;;;;;;;2.83;1.83;;;18.20;66.40;;;;;;10049220;28;20030;-63
2023/04/10 18:12:46;;;;;;;2.80;1.67;;;18.20;66.60;;;;;;10035102;28;20068;-62
2023/04/10 18:17:37;;;;;;;1.55;1.20;;;18.10;66.50;;;;;;10034736;28;20271;-63
2023/04/10 18:22:28;;;;;;;2.15;1.60;;;18.00;65.70;;;;;;10047228;28;20380;-64
2023/04/10 18:27:19;;;;;;;1.98;1.55;;;18.00;65.20;;;;;;10046631;28;20026;-64
2023/04/10 18:32:09;;;;;;;2.45;1.20;;;17.90;64.50;;;;;;10053270;28;20465;-61
2023/04/10 18:37:00;;;;;;;4.10;1.50;;;17.90;64.20;;;;;;10046194;28;20053;-67
2023/04/10 18:41:51;;;;;;;3.78;1.25;;;17.90;63.90;;;;;;10054655;28;20040;-63
2023/04/10 18:46:43;;;;;;;2.85;1.35;;;17.90;63.70;;;;;;10061647;28;20091;-61
2023/04/10 18:51:34;;;;;;;2.15;1.45;;;17.80;63.50;;;;;;10052763;28;20132;-62
2023/04/10 18:56:25;;;;;;;2.47;1.40;;;17.80;63.30;;;;;;10052096;28;20038;-62
2023/04/10 19:01:18;;;;;;;5.53;2.53;;;17.80;63.20;;;;;;10060915;28;20030;-63
2023/04/10 19:06:09;;;;;;;3.60;2.65;;;17.80;63.20;;;;;;10067525;28;20025;-64
2023/04/10 19:11:06;;;;;;;2.47;1.73;;;17.80;63.20;;;;;;10060848;28;20040;-64
2023/04/10 19:15:57;;;;;;;2.28;1.52;;;17.80;63.20;;;;;;10062639;28;20061;-62
2023/04/10 19:20:47;;;;;;;3.53;2.00;;;17.80;63.20;;;;;;10061346;28;20472;-64
2023/04/10 19:25:38;;;;;;;1.85;1.55;;;17.80;63.20;;;;;;10061560;28;20063;-62
2023/04/10 19:30:28;;;;;;;2.95;2.05;;;17.80;63.30;;;;;;10061368;28;20181;-65
2023/04/10 19:35:21;;;;;;;1.63;1.23;;;17.70;63.50;;;;;;10060753;28;20124;-66
2023/04/10 19:40:12;;;;;;;3.50;1.40;;;17.60;64.10;;;;;;10059344;28;20076;-67
2023/04/10 19:45:03;;;;;;;1.45;1.30;;;17.50;64.80;;;;;;10061729;28;20484;-62
2023/04/10 19:49:53;;;;;;;3.00;1.90;;;17.40;65.30;;;;;;10069144;28;20048;-62
2023/04/10 19:54:44;;;;;;;2.90;1.63;;;17.40;65.60;;;;;;10054427;28;20516;-64
2023/04/10 19:59:35;;;;;;;3.50;1.75;;;17.30;66.20;;;;;;10055257;28;20094;-64
2023/04/10 20:04:26;;;;;;;3.20;1.77;;;17.10;67.10;;;;;;10059045;28;20040;-63
2023/04/10 20:09:16;;;;;;;5.20;2.53;;;16.80;68.30;;;;;;10061635;28;20024;-64
2023/04/10 20:14:08;;;;;;;4.30;2.22;;;16.60;68.90;;;;;;10058294;28;20038;-66
2023/04/10 20:18:59;;;;;;;5.65;2.60;;;16.50;69.70;;;;;;10057466;28;20373;-65
2023/04/10 20:23:52;;;;;;;6.28;2.42;;;16.40;70.10;;;;;;10059752;28;20030;-63
2023/04/10 20:28:43;;;;;;;3.47;2.13;;;16.30;71.30;;;;;;10057798;28;20018;-65
2023/04/10 20:33:34;;;;;;;1.98;1.65;;;16.30;71.20;;;;;;10057325;28;20046;-64
2023/04/10 20:38:25;;;;;;;2.75;1.60;;;16.20;71.80;;;;;;10048929;28;20128;-64
2023/04/10 20:43:17;;;;;;;3.05;1.55;;;16.10;72.30;;;;;;10051988;28;20025;-63
2023/04/10 20:48:08;;;;;;;2.85;1.65;;;16.10;73.30;;;;;;10058036;28;20113;-66
2023/04/10 20:53:01;;;;;;;2.25;1.60;;;16.10;72.90;;;;;;10045127;28;20112;-62
2023/04/10 20:57:52;;;;;;;2.40;1.60;;;16.10;73.50;;;;;;10049954;28;20033;-64
2023/04/10 21:02:42;;;;;;;2.92;1.70;;;16.10;73.80;;;;;;10044530;28;20025;-65
2023/04/10 21:07:33;;;;;;;2.78;1.70;;;16.00;74.40;;;;;;10055815;28;20044;-62
2023/04/10 21:12:24;;;;;;;2.35;1.90;;;16.00;75.00;;;;;;10048605;28;20028;-63
2023/04/10 21:17:16;;;;;;;2.78;1.83;;;15.90;75.20;;;;;;10052664;28;20041;-63
2023/04/10 21:22:09;;;;;;;2.17;1.52;;;15.90;75.70;;;;;;10053074;28;20033;-65
2023/04/10 21:26:59;;;;;;;1.95;1.65;;;15.80;75.90;;;;;;10049937;28;20407;-66
2023/04/10 21:31:50;;;;;;;1.95;1.73;;;15.80;76.30;;;;;;10053770;28;20049;-65
2023/04/10 21:36:41;;;;;;;4.90;3.00;;;15.80;76.50;;;;;;10056852;28;20136;-63
2023/04/10 21:41:31;;;;;;;2.47;1.50;;;15.70;76.80;;;;;;10057232;28;20454;-65
2023/04/10 21:46:22;;;;;;;3.13;1.30;;;15.70;77.30;;;;;;10063310;28;20129;-68
2023/04/10 21:51:12;;;;;;;2.63;1.35;;;15.60;77.60;;;;;;10058973;28;20097;-65
2023/04/10 21:56:03;;;;;;;2.15;1.45;;;15.60;77.90;;;;;;10051815;28;20037;-65
2023/04/10 22:00:54;;;;;;;4.03;2.10;;;15.70;78.00;;;;;;10064518;28;20029;-63
2023/04/10 22:05:46;;;;;;;2.58;1.45;;;15.60;78.30;;;;;;10064388;28;20026;-63
2023/04/10 22:10:37;;;;;;;2.20;1.48;;;15.60;78.50;;;;;;10062891;28;20031;-65
2023/04/10 22:15:28;;;;;;;2.17;1.48;;;15.60;78.70;;;;;;10062694;28;20041;-63
2023/04/10 22:20:18;;;;;;;1.73;1.55;;;15.60;79.00;;;;;;10063539;28;20037;-64
2023/04/10 22:25:09;;;;;;;5.97;1.67;;;15.60;79.10;;;;;;10063734;28;20030;-63
2023/04/10 22:30:00;;;;;;;2.00;1.38;;;15.60;79.30;;;;;;10061719;28;20465;-64
2023/04/10 22:34:50;;;;;;;2.03;1.45;;;15.60;79.60;;;;;;10063503;28;20039;-65
2023/04/10 22:39:41;;;;;;;3.65;1.40;;;15.60;79.50;;;;;;10063334;28;20447;-64
2023/04/10 22:44:32;;;;;;;2.72;1.63;;;15.70;79.80;;;;;;10063315;28;20443;-63
2023/04/10 22:49:22;;;;;;;2.03;1.48;;;15.70;80.00;;;;;;10072336;28;20369;-64
2023/04/10 22:54:14;;;;;;;2.50;1.63;;;15.70;80.20;;;;;;10062913;28;20049;-64
2023/04/10 22:59:05;;;;;;;3.20;2.00;;;15.70;80.30;;;;;;10056555;28;20025;-65
2023/04/10 23:03:56;;;;;;;3.47;2.03;;;15.80;80.30;;;;;;10062485;28;20029;-64
2023/04/10 23:08:46;;;;;;;2.17;1.90;;;15.70;80.30;;;;;;10061622;28;20037;-64
2023/04/10 23:13:37;;;;;;;3.03;1.75;;;15.80;80.50;;;;;;10062216;28;20030;-64
2023/04/10 23:18:27;;;;;;;2.13;1.50;;;15.70;80.80;;;;;;10061215;28;20223;-63
2023/04/10 23:23:19;;;;;;;2.50;2.10;;;15.60;81.10;;;;;;10062445;28;20404;-63
2023/04/10 23:28:10;;;;;;;2.30;1.40;;;15.70;81.40;;;;;;10063293;28;20451;-64
2023/04/10 23:33:01;;;;;;;2.13;1.20;;;15.60;81.60;;;;;;10061478;28;20041;-64
2023/04/10 23:37:52;;;;;;;3.05;2.00;;;15.60;81.90;;;;;;10061622;28;20053;-64
2023/04/10 23:42:43;;;;;;;2.05;1.25;;;15.70;81.70;;;;;;10060919;28;20032;-63
2023/04/10 23:47:33;;;;;;;3.33;1.38;;;15.50;82.60;;;;;;10070406;28;20413;-64
2023/04/10 23:52:24;;;;;;;1.67;1.13;;;15.30;83.20;;;;;;10060097;28;20063;-64
2023/04/10 23:57:15;;;;;;;2.83;1.35;;;15.10;84.80;;;;;;10052951;28;20045;-64
